createdAt,value
2019-05-20T00:00:18.356Z,17.20
2019-05-20T00:02:47.745Z,16.37
2019-05-20T00:05:17.161Z,18.47
2019-05-20T00:07:46.538Z,19.43
2019-05-20T00:10:16.051Z,19.90
2019-05-20T00:12:45.436Z,18.53
2019-05-20T00:15:15.426Z,20.30
2019-05-20T00:17:44.825Z,20.73
2019-05-20T00:20:14.623Z,18.13
2019-05-20T00:22:44.014Z,20.83
2019-05-20T00:25:13.601Z,16.80
2019-05-20T00:27:43.036Z,19.93
2019-05-20T00:30:12.923Z,18.77
2019-05-20T00:32:42.688Z,17.57
2019-05-20T00:35:12.581Z,19.33
2019-05-20T00:37:41.970Z,18.93
2019-05-20T00:40:12.508Z,22.13
2019-05-20T00:42:41.867Z,19.97
2019-05-20T00:45:12.155Z,19.37
2019-05-20T00:47:41.547Z,18.43
2019-05-20T00:50:11.561Z,20.97
2019-05-20T00:52:40.943Z,20.50
2019-05-20T00:55:29.405Z,22.43
2019-05-20T00:57:58.804Z,21.30
2019-05-20T01:00:28.469Z,20.87
2019-05-20T01:02:57.876Z,25.03
2019-05-20T01:05:27.263Z,22.33
2019-05-20T01:07:56.643Z,22.23
2019-05-20T01:10:26.616Z,23.20
2019-05-20T01:12:55.989Z,22.70
2019-05-20T01:15:25.915Z,22.00
2019-05-20T01:17:55.294Z,22.77
2019-05-20T01:20:24.680Z,26.63
2019-05-20T01:22:54.062Z,26.93
2019-05-20T01:25:23.450Z,22.70
2019-05-20T01:27:52.833Z,24.50
2019-05-20T01:30:22.478Z,23.63
2019-05-20T01:32:51.858Z,24.00
2019-05-20T01:35:21.239Z,25.30
2019-05-20T01:37:50.619Z,24.33
2019-05-20T01:40:20.003Z,20.60
2019-05-20T01:42:50.792Z,26.27
2019-05-20T01:45:20.238Z,23.83
2019-05-20T01:47:49.612Z,26.83
2019-05-20T01:50:18.999Z,23.60
2019-05-20T01:52:48.383Z,23.43
2019-05-20T01:55:17.854Z,24.03
2019-05-20T01:57:47.268Z,22.57
2019-05-20T02:00:17.295Z,23.93
2019-05-20T02:02:46.669Z,24.30
2019-05-20T02:05:16.357Z,24.87
2019-05-20T02:07:45.744Z,24.93
2019-05-20T02:10:15.845Z,24.77
2019-05-20T02:12:45.226Z,22.13
2019-05-20T02:15:16.685Z,23.10
2019-05-20T02:17:46.069Z,26.60
2019-05-20T02:20:15.760Z,26.03
2019-05-20T02:22:45.152Z,24.70
2019-05-20T02:25:15.035Z,23.10
2019-05-20T02:27:44.415Z,24.10
2019-05-20T02:30:14.309Z,23.90
2019-05-20T02:32:43.698Z,25.10
2019-05-20T02:35:13.254Z,21.20
2019-05-20T02:37:42.646Z,25.13
2019-05-20T02:40:12.868Z,26.43
2019-05-20T02:42:42.252Z,26.07
2019-05-20T02:45:12.072Z,25.20
2019-05-20T02:47:41.455Z,24.73
2019-05-20T02:50:11.246Z,22.60
2019-05-20T02:52:40.984Z,22.73
2019-05-20T02:55:10.606Z,23.43
2019-05-20T02:57:44.254Z,23.90
2019-05-20T03:00:14.070Z,23.43
2019-05-20T03:02:43.443Z,22.93
2019-05-20T03:05:13.264Z,21.70
2019-05-20T03:07:42.664Z,25.07
2019-05-20T03:10:12.750Z,22.43
2019-05-20T03:12:42.130Z,24.47
2019-05-20T03:15:11.834Z,23.30
2019-05-20T03:17:41.218Z,22.63
2019-05-20T03:20:10.842Z,22.30
2019-05-20T03:22:40.562Z,26.33
2019-05-20T03:25:10.282Z,23.97
2019-05-20T03:27:39.912Z,25.13
2019-05-20T03:30:10.138Z,25.40
2019-05-20T03:32:39.505Z,22.20
2019-05-20T03:35:09.577Z,24.47
2019-05-20T03:37:38.949Z,25.67
2019-05-20T03:40:09.553Z,24.40
2019-05-20T03:42:38.941Z,24.90
2019-05-20T03:45:08.939Z,22.43
2019-05-20T03:47:38.315Z,23.43
2019-05-20T03:50:11.812Z,26.13
2019-05-20T03:52:41.192Z,23.03
2019-05-20T03:55:11.074Z,23.97
2019-05-20T03:57:40.455Z,22.83
2019-05-20T04:00:10.640Z,25.77
2019-05-20T04:02:40.028Z,23.30
2019-05-20T04:05:09.976Z,27.40
2019-05-20T04:07:39.359Z,29.67
2019-05-20T04:10:09.543Z,25.97
2019-05-20T04:12:38.949Z,25.77
2019-05-20T04:15:08.738Z,28.40
2019-05-20T04:17:38.141Z,27.90
2019-05-20T04:20:08.628Z,27.60
2019-05-20T04:22:38.014Z,27.27
2019-05-20T04:25:09.171Z,27.57
2019-05-20T04:27:38.552Z,30.43
2019-05-20T04:30:08.846Z,32.57
2019-05-20T04:32:38.230Z,35.47
2019-05-20T04:35:21.321Z,33.60
2019-05-20T04:37:38.883Z,37.57
2019-05-20T04:40:08.782Z,36.43
2019-05-20T04:42:38.218Z,32.27
2019-05-20T04:45:08.602Z,35.30
2019-05-20T04:47:38.362Z,38.47
2019-05-20T04:50:09.653Z,34.53
2019-05-20T04:52:39.038Z,37.07
2019-05-20T04:55:08.939Z,40.13
2019-05-20T04:57:38.318Z,40.10
2019-05-20T05:00:12.146Z,36.33
2019-05-20T05:02:43.568Z,39.07
2019-05-20T05:05:12.990Z,41.77
2019-05-20T05:07:42.372Z,37.33
2019-05-20T05:10:13.365Z,40.37
2019-05-20T05:12:42.878Z,41.27
2019-05-20T05:15:13.837Z,43.33
2019-05-20T05:17:43.224Z,46.57
2019-05-20T05:20:18.216Z,41.57
2019-05-20T05:22:44.182Z,39.07
2019-05-20T05:25:13.805Z,41.40
2019-05-20T05:27:43.211Z,36.83
2019-05-20T05:30:13.125Z,43.07
2019-05-20T05:32:43.175Z,44.90
2019-05-20T05:35:15.984Z,42.27
2019-05-20T05:37:45.718Z,45.47
2019-05-20T05:40:16.508Z,41.77
2019-05-20T05:42:45.891Z,34.67
2019-05-20T05:45:15.614Z,34.13
2019-05-20T05:47:45.005Z,35.90
2019-05-20T05:50:14.787Z,34.37
2019-05-20T05:52:44.173Z,29.93
2019-05-20T05:55:13.800Z,25.73
2019-05-20T05:57:43.208Z,30.20
2019-05-20T06:00:13.122Z,30.03
2019-05-20T06:02:42.924Z,34.07
2019-05-20T06:05:12.281Z,32.87
2019-05-20T06:07:41.664Z,26.90
2019-05-20T06:10:12.083Z,26.77
2019-05-20T06:12:41.459Z,31.73
2019-05-20T06:15:12.050Z,27.10
2019-05-20T06:17:41.651Z,31.07
2019-05-20T06:20:11.846Z,25.73
2019-05-20T06:22:41.302Z,25.93
2019-05-20T06:25:12.379Z,22.53
2019-05-20T06:27:41.840Z,22.23
2019-05-20T06:30:13.519Z,20.37
2019-05-20T06:32:43.037Z,21.90
2019-05-20T06:35:14.271Z,24.17
2019-05-20T06:37:48.611Z,22.53
2019-05-20T06:40:18.446Z,24.03
2019-05-20T06:42:48.626Z,25.07
2019-05-20T06:45:18.254Z,32.30
2019-05-20T06:47:47.637Z,34.80
2019-05-20T06:50:17.282Z,33.57
2019-05-20T06:52:46.672Z,34.17
2019-05-20T06:55:16.954Z,36.90
2019-05-20T06:57:46.357Z,37.07
2019-05-20T07:00:20.424Z,40.43
2019-05-20T07:02:52.130Z,35.03
2019-05-20T07:05:20.933Z,35.73
2019-05-20T07:07:50.337Z,33.87
2019-05-20T07:10:19.718Z,31.83
2019-05-20T07:12:49.099Z,29.10
2019-05-20T07:15:18.827Z,24.30
2019-05-20T07:17:48.196Z,23.93
2019-05-20T07:20:17.580Z,23.93
2019-05-20T07:22:55.858Z,24.00
2019-05-20T07:25:18.105Z,23.50
2019-05-20T07:27:47.472Z,24.67
2019-05-20T07:30:17.191Z,19.30
2019-05-20T07:32:46.751Z,22.93
2019-05-20T07:35:29.511Z,22.73
2019-05-20T07:37:47.385Z,21.23
2019-05-20T07:40:24.256Z,19.30
2019-05-20T07:42:53.637Z,20.40
2019-05-20T07:45:23.364Z,24.10
2019-05-20T07:47:53.156Z,21.67
2019-05-20T07:50:22.934Z,31.80
2019-05-20T07:52:52.367Z,32.70
2019-05-20T07:55:25.162Z,35.60
2019-05-20T07:57:59.137Z,31.73
2019-05-20T08:00:28.526Z,34.33
2019-05-20T08:02:58.210Z,35.20
2019-05-20T08:05:27.590Z,32.03
2019-05-20T08:07:57.054Z,33.27
2019-05-20T08:10:26.507Z,30.23
2019-05-20T08:12:55.893Z,29.53
2019-05-20T08:15:25.274Z,35.63
2019-05-20T08:17:54.773Z,33.03
2019-05-20T08:20:24.267Z,32.70
2019-05-20T08:22:53.670Z,37.83
2019-05-20T08:25:23.222Z,31.80
2019-05-20T08:27:52.693Z,34.73
2019-05-20T08:30:37.592Z,36.93
2019-05-20T08:33:08.223Z,31.50
2019-05-20T08:35:37.768Z,31.60
2019-05-20T08:38:07.400Z,34.50
2019-05-20T08:40:36.799Z,39.87
2019-05-20T08:43:06.198Z,33.00
2019-05-20T08:45:35.677Z,32.63
2019-05-20T08:48:05.109Z,29.57
2019-05-20T08:50:34.493Z,26.43
2019-05-20T08:53:03.883Z,24.87
2019-05-20T08:55:33.686Z,24.80
2019-05-20T08:58:03.191Z,22.20
2019-05-20T09:00:32.764Z,24.63
2019-05-20T09:03:02.232Z,24.43
2019-05-20T09:05:32.270Z,24.50
2019-05-20T09:08:03.751Z,26.83
2019-05-20T09:10:32.766Z,27.30
2019-05-20T09:13:02.167Z,26.67
2019-05-20T09:15:31.599Z,26.00
2019-05-20T09:18:00.963Z,25.40
2019-05-20T09:20:30.406Z,24.97
2019-05-20T09:23:02.722Z,26.90
2019-05-20T09:25:32.818Z,27.53
2019-05-20T09:28:02.497Z,30.13
2019-05-20T09:30:31.945Z,27.80
2019-05-20T09:33:01.466Z,37.90
2019-05-20T09:35:30.846Z,26.57
2019-05-20T09:38:00.347Z,27.33
2019-05-20T09:40:47.637Z,27.87
2019-05-20T09:43:17.558Z,34.37
2019-05-20T09:46:04.194Z,27.17
2019-05-20T09:48:19.170Z,23.13
2019-05-20T09:50:48.534Z,24.23
2019-05-20T09:53:19.359Z,26.83
2019-05-20T09:55:48.802Z,25.37
2019-05-20T09:58:18.133Z,27.30
2019-05-20T10:00:47.919Z,28.87
2019-05-20T10:03:17.315Z,26.63
2019-05-20T10:05:46.691Z,25.53
2019-05-20T10:08:16.130Z,24.23
2019-05-20T10:10:45.467Z,26.83
2019-05-20T10:13:14.940Z,22.60
2019-05-20T10:15:44.635Z,26.83
2019-05-20T10:18:14.061Z,24.80
2019-05-20T10:20:43.434Z,19.80
2019-05-20T10:23:15.741Z,22.33
2019-05-20T10:25:43.919Z,24.27
2019-05-20T10:28:13.300Z,23.47
2019-05-20T10:30:42.717Z,26.13
2019-05-20T10:33:12.170Z,24.10
2019-05-20T10:35:41.641Z,24.03
2019-05-20T10:38:11.031Z,22.27
2019-05-20T10:40:40.421Z,20.73
2019-05-20T10:43:09.904Z,19.17
2019-05-20T10:45:39.268Z,21.80
2019-05-20T10:48:09.282Z,28.67
2019-05-20T10:50:38.702Z,25.90
2019-05-20T10:53:08.092Z,28.97
2019-05-20T10:55:37.477Z,28.47
2019-05-20T10:58:06.860Z,25.77
2019-05-20T11:00:36.281Z,24.70
2019-05-20T11:03:05.667Z,27.17
2019-05-20T11:05:35.035Z,24.50
2019-05-20T11:08:04.422Z,29.63
2019-05-20T11:10:33.801Z,28.07
2019-05-20T11:13:03.597Z,30.60
2019-05-20T11:15:33.043Z,26.97
2019-05-20T11:18:02.444Z,28.43
2019-05-20T11:20:31.835Z,25.63
2019-05-20T11:23:01.511Z,26.53
2019-05-20T11:25:30.970Z,24.73
2019-05-20T11:28:00.618Z,28.67
2019-05-20T11:30:30.182Z,27.13
2019-05-20T11:32:59.563Z,25.97
2019-05-20T11:35:28.948Z,24.87
2019-05-20T11:37:58.334Z,26.87
2019-05-20T11:40:27.712Z,20.70
2019-05-20T11:42:57.091Z,24.33
2019-05-20T11:45:26.548Z,24.10
2019-05-20T11:47:55.924Z,28.50
2019-05-20T11:50:25.484Z,23.50
2019-05-20T11:52:54.898Z,21.10
2019-05-20T11:55:24.318Z,21.00
2019-05-20T11:57:53.708Z,23.87
2019-05-20T12:00:23.219Z,28.17
2019-05-20T12:02:52.606Z,20.63
2019-05-20T12:05:22.027Z,21.40
2019-05-20T12:07:51.393Z,18.27
2019-05-20T12:10:21.617Z,21.47
2019-05-20T12:12:51.019Z,21.80
2019-05-20T12:15:20.862Z,19.50
2019-05-20T12:17:50.249Z,23.93
2019-05-20T12:20:20.356Z,21.12
2019-05-20T12:22:50.202Z,18.43
2019-05-20T12:25:19.593Z,20.97
2019-05-20T12:27:48.993Z,19.80
2019-05-20T12:30:18.865Z,19.93
2019-05-20T12:32:48.289Z,23.47
2019-05-20T12:35:17.742Z,23.90
2019-05-20T12:37:47.126Z,23.63
2019-05-20T12:40:17.015Z,21.83
2019-05-20T12:42:46.394Z,20.20
2019-05-20T12:45:16.130Z,19.13
2019-05-20T12:47:45.495Z,20.23
2019-05-20T12:50:17.085Z,20.97
2019-05-20T12:52:46.477Z,21.57
2019-05-20T12:55:16.353Z,19.70
2019-05-20T12:57:45.765Z,15.83
2019-05-20T13:00:19.031Z,23.27
2019-05-20T13:02:48.415Z,16.32
2019-05-20T13:05:19.335Z,19.25
2019-05-20T13:07:48.718Z,17.70
2019-05-20T13:10:29.120Z,17.80
2019-05-20T13:12:49.654Z,18.00
2019-05-20T13:15:19.195Z,18.87
2019-05-20T13:17:48.593Z,17.80
2019-05-20T13:20:18.135Z,25.10
2019-05-20T13:22:47.519Z,20.57
2019-05-20T13:25:17.215Z,20.00
2019-05-20T13:27:46.600Z,21.00
2019-05-20T13:30:18.058Z,21.42
2019-05-20T13:32:48.114Z,22.37
2019-05-20T13:35:18.236Z,20.05
2019-05-20T13:37:47.622Z,19.85
2019-05-20T13:40:17.709Z,19.73
2019-05-20T13:42:47.090Z,18.35
2019-05-20T13:45:16.875Z,21.33
2019-05-20T13:47:46.212Z,20.23
2019-05-20T13:50:17.099Z,18.00
2019-05-20T13:52:46.839Z,21.52
2019-05-20T13:55:16.285Z,19.23
2019-05-20T13:57:45.677Z,16.67
2019-05-20T14:00:15.627Z,21.15
2019-05-20T14:02:45.050Z,20.97
2019-05-20T14:05:14.837Z,21.57
2019-05-20T14:07:44.491Z,23.85
2019-05-20T14:10:15.082Z,29.15
2019-05-20T14:12:45.131Z,33.58
2019-05-20T14:15:15.422Z,32.00
2019-05-20T14:17:44.840Z,31.82
2019-05-20T14:20:14.723Z,34.85
2019-05-20T14:22:44.115Z,35.98
2019-05-20T14:25:13.943Z,34.05
2019-05-20T14:27:43.371Z,32.23
2019-05-20T14:30:13.282Z,36.23
2019-05-20T14:32:42.729Z,33.63
2019-05-20T14:35:12.522Z,35.13
2019-05-20T14:37:41.908Z,35.43
2019-05-20T14:40:12.302Z,33.15
2019-05-20T14:42:41.685Z,34.10
2019-05-20T14:45:12.102Z,32.08
2019-05-20T14:47:41.489Z,26.33
2019-05-20T14:50:11.394Z,31.27
2019-05-20T14:52:40.769Z,27.95
2019-05-20T14:55:10.938Z,28.25
2019-05-20T14:57:40.317Z,26.60
2019-05-20T15:00:10.405Z,26.60
2019-05-20T15:02:39.789Z,28.25
2019-05-20T15:05:09.684Z,26.70
2019-05-20T15:07:39.088Z,30.87
2019-05-20T15:10:12.065Z,36.93
2019-05-20T15:12:41.466Z,31.70
2019-05-20T15:15:11.838Z,35.37
2019-05-20T15:17:41.602Z,35.33
2019-05-20T15:20:11.681Z,35.40
2019-05-20T15:22:41.163Z,34.87
2019-05-20T15:25:11.505Z,36.80
2019-05-20T15:27:41.061Z,36.48
2019-05-20T15:30:11.349Z,39.53
2019-05-20T15:32:40.739Z,39.80
2019-05-20T15:35:10.681Z,39.87
2019-05-20T15:37:40.060Z,38.73
2019-05-20T15:40:10.052Z,43.23
2019-05-20T15:42:39.432Z,50.47
2019-05-20T15:45:09.915Z,43.17
2019-05-20T15:47:39.674Z,41.23
2019-05-20T15:50:10.778Z,43.30
2019-05-20T15:52:40.445Z,42.77
2019-05-20T15:55:10.228Z,47.30
2019-05-20T15:57:39.606Z,42.90
2019-05-20T16:00:10.697Z,52.33
2019-05-20T16:02:40.090Z,42.97
2019-05-20T16:05:09.699Z,43.90
2019-05-20T16:07:39.093Z,39.50
2019-05-20T16:10:08.623Z,40.13
2019-05-20T16:12:38.002Z,41.30
2019-05-20T16:15:09.687Z,42.93
2019-05-20T16:17:39.174Z,40.50
2019-05-20T16:20:09.468Z,38.23
2019-05-20T16:22:38.838Z,34.87
2019-05-20T16:25:08.928Z,29.17
2019-05-20T16:27:38.307Z,30.60
2019-05-20T16:30:12.098Z,29.77
2019-05-20T16:32:41.744Z,28.40
2019-05-20T16:35:11.758Z,23.00
2019-05-20T16:37:41.137Z,24.90
2019-05-20T16:40:13.119Z,24.23
2019-05-20T16:42:42.524Z,24.57
2019-05-20T16:45:12.835Z,20.90
2019-05-20T16:47:42.219Z,22.87
2019-05-20T16:50:12.609Z,25.80
2019-05-20T16:52:42.006Z,30.50
2019-05-20T16:55:11.926Z,28.13
2019-05-20T16:57:41.297Z,31.83
2019-05-20T17:00:29.914Z,23.27
2019-05-20T17:02:43.168Z,21.10
2019-05-20T17:05:13.572Z,24.37
2019-05-20T17:07:42.979Z,25.80
2019-05-20T17:10:12.953Z,22.30
2019-05-20T17:12:42.378Z,22.43
2019-05-20T17:15:12.539Z,22.13
2019-05-20T17:17:41.936Z,22.67
2019-05-20T17:20:11.523Z,21.30
2019-05-20T17:22:40.905Z,17.57
2019-05-20T17:25:10.802Z,18.30
2019-05-20T17:27:40.353Z,20.93
2019-05-20T17:30:11.929Z,20.73
2019-05-20T17:32:41.329Z,19.17
2019-05-20T17:35:11.147Z,19.03
2019-05-20T17:37:40.532Z,24.60
2019-05-20T17:40:11.217Z,17.00
2019-05-20T17:42:40.602Z,21.87
2019-05-20T17:45:11.495Z,21.87
2019-05-20T17:47:40.960Z,24.03
2019-05-20T17:50:11.549Z,29.13
2019-05-20T17:52:40.928Z,20.27
2019-05-20T17:55:11.013Z,21.90
2019-05-20T17:57:40.390Z,27.40
2019-05-20T18:00:12.921Z,18.27
2019-05-20T18:02:42.309Z,21.90
2019-05-20T18:05:14.860Z,17.80
2019-05-20T18:07:43.334Z,18.37
2019-05-20T18:10:13.285Z,22.43
2019-05-20T18:12:42.673Z,23.33
2019-05-20T18:15:12.760Z,19.10
2019-05-20T18:17:42.143Z,23.57
2019-05-20T18:20:12.334Z,23.03
2019-05-20T18:22:41.717Z,17.10
2019-05-20T18:25:11.898Z,20.10
2019-05-20T18:27:41.452Z,28.57
2019-05-20T18:30:12.215Z,23.43
2019-05-20T18:32:41.601Z,18.93
2019-05-20T18:35:11.624Z,20.90
2019-05-20T18:37:41.007Z,17.80
2019-05-20T18:40:14.443Z,21.43
2019-05-20T18:42:42.714Z,23.23
2019-05-20T18:45:12.714Z,24.67
2019-05-20T18:47:42.104Z,17.37
2019-05-20T18:50:12.195Z,22.57
2019-05-20T18:52:41.570Z,23.30
2019-05-20T18:55:11.589Z,24.37
2019-05-20T18:57:40.965Z,25.30
2019-05-20T19:00:12.331Z,22.27
2019-05-20T19:02:41.705Z,26.07
2019-05-20T19:05:11.503Z,22.17
2019-05-20T19:07:41.132Z,27.60
2019-05-20T19:10:11.855Z,27.17
2019-05-20T19:12:41.231Z,24.77
2019-05-20T19:15:11.333Z,21.30
2019-05-20T19:17:40.801Z,25.47
2019-05-20T19:20:10.250Z,22.23
2019-05-20T19:22:39.692Z,26.80
2019-05-20T19:25:09.308Z,18.77
2019-05-20T19:27:38.718Z,22.03
2019-05-20T19:30:10.110Z,22.57
2019-05-20T19:32:39.569Z,21.23
2019-05-20T19:35:09.756Z,21.03
2019-05-20T19:37:39.261Z,19.73
2019-05-20T19:40:09.393Z,25.33
2019-05-20T19:42:39.096Z,23.53
2019-05-20T19:45:09.417Z,19.60
2019-05-20T19:47:38.798Z,23.20
2019-05-20T19:50:09.413Z,22.87
2019-05-20T19:52:38.804Z,21.27
2019-05-20T19:55:08.605Z,20.03
2019-05-20T19:57:37.972Z,18.90
2019-05-20T20:00:12.804Z,21.73
2019-05-20T20:02:42.171Z,21.70
2019-05-20T20:05:12.565Z,25.70
2019-05-20T20:07:42.021Z,21.83
2019-05-20T20:10:12.817Z,25.63
2019-05-20T20:12:42.198Z,23.03
2019-05-20T20:15:19.922Z,23.43
2019-05-20T20:17:49.303Z,24.13
2019-05-20T20:20:18.803Z,22.20
2019-05-20T20:22:48.186Z,21.63
2019-05-20T20:25:17.648Z,26.17
2019-05-20T20:27:47.030Z,27.60
2019-05-20T20:30:16.835Z,21.30
2019-05-20T20:32:46.227Z,25.47
2019-05-20T20:35:15.758Z,22.10
2019-05-20T20:37:45.142Z,23.17
2019-05-20T20:40:14.699Z,23.97
2019-05-20T20:42:44.090Z,23.83
2019-05-20T20:45:14.455Z,20.33
2019-05-20T20:47:44.020Z,24.23
2019-05-20T20:50:13.966Z,26.93
2019-05-20T20:52:43.360Z,19.63
2019-05-20T20:55:13.860Z,24.33
2019-05-20T20:57:43.398Z,23.20
2019-05-20T21:00:13.204Z,29.30
2019-05-20T21:02:52.646Z,35.63
2019-05-20T21:05:13.910Z,25.53
2019-05-20T21:07:43.286Z,32.33
2019-05-20T21:10:12.918Z,32.30
2019-05-20T21:12:42.305Z,30.33
2019-05-20T21:15:12.527Z,36.03
2019-05-20T21:17:41.911Z,29.40
2019-05-20T21:20:11.722Z,30.27
2019-05-20T21:22:41.779Z,33.50
2019-05-20T21:25:11.601Z,33.47
2019-05-20T21:27:40.983Z,34.47
2019-05-20T21:30:11.194Z,28.03
2019-05-20T21:32:40.593Z,27.87
2019-05-20T21:35:10.739Z,27.60
2019-05-20T21:37:40.183Z,33.93
2019-05-20T21:40:10.001Z,31.70
2019-05-20T21:42:39.390Z,30.33
2019-05-20T21:45:09.489Z,29.23
2019-05-20T21:47:38.888Z,33.93
2019-05-20T21:50:09.168Z,30.70
2019-05-20T21:52:38.642Z,31.13
2019-05-20T21:55:09.707Z,35.20
2019-05-20T21:57:39.084Z,30.57
2019-05-20T22:00:12.327Z,31.23
2019-05-20T22:02:41.712Z,27.30
2019-05-20T22:05:11.415Z,26.07
2019-05-20T22:07:40.802Z,28.03
2019-05-20T22:10:10.709Z,23.47
2019-05-20T22:12:40.082Z,22.50
2019-05-20T22:15:09.967Z,20.80
2019-05-20T22:17:39.402Z,19.40
2019-05-20T22:20:09.261Z,23.30
2019-05-20T22:22:40.293Z,21.90
2019-05-20T22:25:09.915Z,17.27
2019-05-20T22:27:39.294Z,18.83
2019-05-20T22:30:09.456Z,19.23
2019-05-20T22:32:38.842Z,19.03
2019-05-20T22:35:09.047Z,19.87
2019-05-20T22:37:38.432Z,17.67
2019-05-20T22:40:08.539Z,24.03
2019-05-20T22:42:37.921Z,22.10
2019-05-20T22:45:07.812Z,23.73
2019-05-20T22:47:37.201Z,21.47
2019-05-20T22:50:06.862Z,18.97
2019-05-20T22:52:36.240Z,20.97
2019-05-20T22:55:06.630Z,22.77
2019-05-20T22:57:36.030Z,20.17
2019-05-20T23:00:06.807Z,23.87
2019-05-20T23:02:36.201Z,26.53
2019-05-20T23:05:06.990Z,26.20
2019-05-20T23:07:36.449Z,23.43
2019-05-20T23:10:08.455Z,23.00
2019-05-20T23:12:37.844Z,24.93
2019-05-20T23:15:09.043Z,22.73
2019-05-20T23:17:38.421Z,23.80
2019-05-20T23:20:08.321Z,22.93
2019-05-20T23:22:37.707Z,20.30
2019-05-20T23:25:07.536Z,25.17
2019-05-20T23:27:36.932Z,28.80
2019-05-20T23:30:09.288Z,25.47
2019-05-20T23:32:38.682Z,30.93
2019-05-20T23:35:08.664Z,32.70
2019-05-20T23:37:38.067Z,38.10
2019-05-20T23:40:07.964Z,36.87
2019-05-20T23:42:37.349Z,31.60
2019-05-20T23:45:08.842Z,34.40
2019-05-20T23:47:38.230Z,34.57
2019-05-20T23:50:08.227Z,30.00
2019-05-20T23:52:37.621Z,30.83
2019-05-20T23:55:08.817Z,31.80
2019-05-20T23:57:38.200Z,28.97
